Time;durP1;ratioP1;P1;durP2;ratioP2;P2;SDS_P1;SDS_P2;PMS_P1;PMS_P2;Temp;Humidity;BMP_temperature;BMP_pressure;BME280_temperature;BME280_humidity;BME280_pressure;Samples;Min_cycle;Max_cycle;Signal;HPM_P1;HPM_P2
2022/02/23 00:00:23;;;;;;;11.25;3.08;;;5.60;99.90;;;;;;5093170;28;20219;-59
2022/02/23 00:02:52;;;;;;;10.75;2.63;;;5.60;99.90;;;;;;5093523;28;20227;-59
2022/02/23 00:05:19;;;;;;;12.82;2.80;;;5.60;99.90;;;;;;5093127;28;20568;-59
2022/02/23 00:07:46;;;;;;;10.32;3.55;;;5.60;99.90;;;;;;5094049;28;20227;-59
2022/02/23 00:10:13;;;;;;;10.90;3.75;;;5.60;99.90;;;;;;5093193;28;20215;-59
2022/02/23 00:12:40;;;;;;;13.82;2.92;;;5.60;99.90;;;;;;5093561;28;20200;-59
2022/02/23 00:15:09;;;;;;;10.48;3.83;;;5.70;99.90;;;;;;5093268;28;20216;-58
2022/02/23 00:17:38;;;;;;;8.40;2.80;;;5.70;99.90;;;;;;5093887;28;20566;-59
2022/02/23 00:20:08;;;;;;;15.35;3.50;;;5.70;99.90;;;;;;5093851;28;20204;-59
2022/02/23 00:22:35;;;;;;;9.02;3.17;;;5.70;99.90;;;;;;5093553;28;20200;-59
2022/02/23 00:25:03;;;;;;;11.02;2.60;;;5.70;99.90;;;;;;5095152;28;20204;-58
2022/02/23 00:27:30;;;;;;;15.07;3.35;;;5.60;99.90;;;;;;5097640;28;20204;-59
2022/02/23 00:29:57;;;;;;;14.45;3.53;;;5.60;99.90;;;;;;5097524;28;20196;-58
2022/02/23 00:32:25;;;;;;;13.27;2.83;;;5.60;99.90;;;;;;5097364;28;20220;-59
2022/02/23 00:34:52;;;;;;;14.70;2.85;;;5.60;99.90;;;;;;5096910;28;20216;-58
2022/02/23 00:37:20;;;;;;;21.65;4.25;;;5.50;99.90;;;;;;5096919;28;20614;-59
2022/02/23 00:39:47;;;;;;;13.27;3.85;;;5.50;99.90;;;;;;5097168;28;20207;-59
2022/02/23 00:42:14;;;;;;;12.13;3.63;;;5.50;99.90;;;;;;5097057;28;20239;-58
2022/02/23 00:44:41;;;;;;;14.93;3.47;;;5.50;99.90;;;;;;5097179;28;20200;-58
2022/02/23 00:47:10;;;;;;;13.27;2.60;;;5.50;99.90;;;;;;5097007;28;20207;-59
2022/02/23 00:49:37;;;;;;;17.23;3.72;;;5.50;99.90;;;;;;5096965;28;20570;-58
2022/02/23 00:52:06;;;;;;;16.40;3.58;;;5.40;99.90;;;;;;5096881;28;20220;-59
2022/02/23 00:54:35;;;;;;;12.05;3.45;;;5.50;99.90;;;;;;5096711;28;20307;-58
2022/02/23 00:57:03;;;;;;;15.60;3.55;;;5.50;99.90;;;;;;5096850;28;20204;-59
2022/02/23 00:59:30;;;;;;;23.60;4.43;;;5.50;99.90;;;;;;5096841;28;20592;-59
2022/02/23 01:01:57;;;;;;;12.40;3.47;;;5.50;99.90;;;;;;5096317;28;20221;-59
2022/02/23 01:04:25;;;;;;;12.30;2.60;;;5.50;99.90;;;;;;5096683;28;20201;-59
2022/02/23 01:06:52;;;;;;;15.27;3.03;;;5.50;99.90;;;;;;5096710;28;20204;-59
2022/02/23 01:09:19;;;;;;;11.25;3.05;;;5.60;99.90;;;;;;5096661;28;20200;-59
2022/02/23 01:11:48;;;;;;;18.65;6.45;;;5.70;99.90;;;;;;5096304;28;20231;-59
2022/02/23 01:14:15;;;;;;;11.77;3.28;;;5.70;99.90;;;;;;5096524;28;20220;-59
2022/02/23 01:16:42;;;;;;;11.50;2.75;;;5.70;99.90;;;;;;5096543;28;20201;-58
2022/02/23 01:19:10;;;;;;;14.40;3.15;;;5.80;99.90;;;;;;5096169;28;20204;-59
2022/02/23 01:21:37;;;;;;;9.18;3.00;;;5.80;99.90;;;;;;5096281;28;20296;-59
2022/02/23 01:24:05;;;;;;;8.38;3.00;;;5.80;99.90;;;;;;5096061;28;20196;-59
2022/02/23 01:26:32;;;;;;;15.20;3.08;;;5.80;99.90;;;;;;5096389;28;20207;-58
2022/02/23 01:29:00;;;;;;;21.38;3.38;;;5.80;99.90;;;;;;5096090;28;20200;-58
2022/02/23 01:31:28;;;;;;;14.10;3.65;;;5.80;99.90;;;;;;5095819;28;20223;-58
2022/02/23 01:33:55;;;;;;;8.25;2.50;;;5.80;99.90;;;;;;5095893;28;20205;-58
2022/02/23 01:36:23;;;;;;;15.25;3.95;;;5.80;99.90;;;;;;5095642;28;20208;-58
2022/02/23 01:38:50;;;;;;;14.07;3.47;;;5.90;99.90;;;;;;5097328;28;20203;-58
2022/02/23 01:41:19;;;;;;;9.35;2.25;;;5.90;99.90;;;;;;5096541;28;20244;-59
2022/02/23 01:43:47;;;;;;;11.20;2.70;;;5.90;99.90;;;;;;5095941;28;20250;-59
2022/02/23 01:46:16;;;;;;;5.05;1.95;;;5.90;99.90;;;;;;5096127;28;20212;-59
2022/02/23 01:48:43;;;;;;;14.40;3.10;;;5.90;99.90;;;;;;5095707;28;20223;-58
2022/02/23 01:51:10;;;;;;;10.70;2.47;;;5.80;99.90;;;;;;5095948;28;20224;-58
2022/02/23 01:53:38;;;;;;;11.48;2.75;;;5.80;99.90;;;;;;5095779;28;20215;-59
2022/02/23 01:56:05;;;;;;;10.23;3.10;;;5.80;99.90;;;;;;5095729;28;20664;-59
2022/02/23 01:58:32;;;;;;;10.05;2.70;;;5.80;99.90;;;;;;5095548;28;20208;-58
2022/02/23 02:00:59;;;;;;;10.55;3.05;;;5.80;99.90;;;;;;5095413;28;20216;-59
2022/02/23 02:03:28;;;;;;;7.20;2.40;;;5.80;99.90;;;;;;5095423;28;20207;-58
2022/02/23 02:05:55;;;;;;;16.40;3.08;;;5.80;99.90;;;;;;5095661;28;20211;-58
2022/02/23 02:08:22;;;;;;;8.27;2.50;;;5.80;99.90;;;;;;5095676;28;20223;-58
2022/02/23 02:10:49;;;;;;;13.05;3.33;;;5.80;99.90;;;;;;5095334;28;20224;-59
2022/02/23 02:13:16;;;;;;;16.95;3.25;;;5.80;99.90;;;;;;5095805;28;20204;-59
2022/02/23 02:15:43;;;;;;;13.68;3.38;;;5.80;99.90;;;;;;5095457;28;20243;-59
2022/02/23 02:18:10;;;;;;;10.98;2.90;;;5.80;99.90;;;;;;5095455;28;20204;-59
2022/02/23 02:20:39;;;;;;;13.73;3.20;;;5.80;99.90;;;;;;5095258;28;20587;-59
2022/02/23 02:23:07;;;;;;;22.20;3.92;;;5.80;99.90;;;;;;5095334;28;20207;-59
2022/02/23 02:25:34;;;;;;;15.52;2.75;;;5.80;99.90;;;;;;5095255;28;20196;-58
2022/02/23 02:28:02;;;;;;;9.48;2.97;;;5.70;99.90;;;;;;5095396;28;20250;-58
2022/02/23 02:30:29;;;;;;;12.20;3.40;;;5.70;99.90;;;;;;5095496;28;20196;-60
2022/02/23 02:32:56;;;;;;;12.57;3.60;;;5.70;99.90;;;;;;5095062;28;20691;-59
2022/02/23 02:35:24;;;;;;;13.18;3.67;;;5.70;99.90;;;;;;5095194;28;20620;-59
2022/02/23 02:37:51;;;;;;;13.77;2.90;;;5.60;99.90;;;;;;5095101;28;20286;-58
2022/02/23 02:40:19;;;;;;;14.50;3.22;;;5.60;99.90;;;;;;5096123;28;20200;-60
2022/02/23 02:42:46;;;;;;;11.15;2.85;;;5.60;99.90;;;;;;5095149;28;20212;-59
2022/02/23 02:45:13;;;;;;;9.40;2.33;;;5.60;99.90;;;;;;5095087;28;20193;-58
2022/02/23 02:47:40;;;;;;;14.68;3.25;;;5.60;99.90;;;;;;5095017;28;20594;-59
2022/02/23 02:50:08;;;;;;;11.27;2.65;;;5.50;99.90;;;;;;5094639;28;20668;-59
2022/02/23 02:52:35;;;;;;;7.72;1.83;;;5.50;99.90;;;;;;5094692;28;20224;-59
2022/02/23 02:55:03;;;;;;;17.35;3.67;;;5.50;99.90;;;;;;5094780;28;20691;-59
2022/02/23 02:57:32;;;;;;;13.30;3.20;;;5.60;99.90;;;;;;5094472;28;20338;-59
2022/02/23 02:59:59;;;;;;;16.98;3.22;;;5.60;99.90;;;;;;5094648;28;20204;-59
2022/02/23 03:02:26;;;;;;;9.43;2.53;;;5.50;99.90;;;;;;5094627;28;20228;-59
2022/02/23 03:04:53;;;;;;;6.60;2.15;;;5.50;99.90;;;;;;5094590;28;20309;-59
2022/02/23 03:07:20;;;;;;;11.93;3.65;;;5.50;99.90;;;;;;5094544;28;20227;-59
2022/02/23 03:09:47;;;;;;;9.70;3.05;;;5.50;99.90;;;;;;5094457;28;20207;-59
2022/02/23 03:12:14;;;;;;;9.48;2.30;;;5.40;99.90;;;;;;5094042;28;20239;-59
2022/02/23 03:14:43;;;;;;;13.45;3.75;;;5.40;99.90;;;;;;5094162;28;20220;-59
2022/02/23 03:17:10;;;;;;;10.20;2.78;;;5.40;99.90;;;;;;5094339;28;20699;-59
2022/02/23 03:19:37;;;;;;;12.43;3.35;;;5.40;99.90;;;;;;5093977;28;20211;-59
2022/02/23 03:22:05;;;;;;;9.43;3.03;;;5.40;99.90;;;;;;5094112;28;20219;-58
2022/02/23 03:24:32;;;;;;;13.98;2.97;;;5.40;99.90;;;;;;5093665;28;20196;-58
2022/02/23 03:26:59;;;;;;;9.15;2.80;;;5.50;99.90;;;;;;5094515;28;20204;-58
2022/02/23 03:29:26;;;;;;;10.88;2.67;;;5.40;99.90;;;;;;5093713;28;20204;-59
2022/02/23 03:31:54;;;;;;;11.38;3.28;;;5.40;99.90;;;;;;5093944;28;20227;-58
2022/02/23 03:34:21;;;;;;;14.60;2.95;;;5.30;99.90;;;;;;5093765;28;20567;-58
2022/02/23 03:36:48;;;;;;;13.50;3.13;;;5.30;99.90;;;;;;5093864;28;20541;-58
2022/02/23 03:39:16;;;;;;;4.95;1.90;;;5.30;99.90;;;;;;5093358;28;20672;-59
2022/02/23 03:41:43;;;;;;;13.43;3.90;;;5.30;99.90;;;;;;5093287;28;20625;-58
2022/02/23 03:44:10;;;;;;;14.88;3.08;;;5.30;99.90;;;;;;5093347;28;20591;-59
2022/02/23 03:46:37;;;;;;;11.45;2.85;;;5.30;99.90;;;;;;5093692;28;20554;-59
2022/02/23 03:49:05;;;;;;;11.25;3.33;;;5.20;99.90;;;;;;5093243;28;20672;-58
2022/02/23 03:51:32;;;;;;;14.88;3.42;;;5.20;99.90;;;;;;5093454;28;20707;-58
2022/02/23 03:53:59;;;;;;;6.35;2.60;;;5.20;99.90;;;;;;5094079;28;20211;-58
2022/02/23 03:56:42;;;;;;;13.50;3.80;;;5.10;99.90;;;;;;5093207;28;20706;-59
2022/02/23 03:59:11;;;;;;;12.55;3.38;;;5.00;99.90;;;;;;5093121;28;20195;-58
2022/02/23 04:01:40;;;;;;;12.23;2.90;;;4.90;99.90;;;;;;5093636;28;20232;-58
2022/02/23 04:04:09;;;;;;;16.10;3.63;;;4.90;99.90;;;;;;5093420;28;20282;-58
2022/02/23 04:09:23;;;;;;;8.85;2.78;;;4.80;99.90;;;;;;5092747;27;20542;-58
2022/02/23 04:11:50;;;;;;;12.25;3.40;;;4.80;99.90;;;;;;5091764;28;20616;-59
2022/02/23 04:14:17;;;;;;;10.75;2.40;;;4.80;99.90;;;;;;5091472;28;20204;-59
2022/02/23 04:16:44;;;;;;;20.00;3.60;;;4.80;99.90;;;;;;5091504;28;20200;-59
2022/02/23 04:19:11;;;;;;;15.52;4.10;;;4.80;99.90;;;;;;5091127;28;20203;-59
2022/02/23 04:21:38;;;;;;;8.15;3.22;;;4.80;99.90;;;;;;5081044;22;20233;-63
2022/02/23 04:24:06;;;;;;;12.05;3.00;;;4.70;99.90;;;;;;5050527;28;20198;-63
2022/02/23 04:26:35;;;;;;;9.40;2.28;;;4.80;99.90;;;;;;5050553;28;20216;-63
2022/02/23 04:29:03;;;;;;;10.55;2.88;;;4.80;99.90;;;;;;5050299;28;20745;-63
2022/02/23 04:31:31;;;;;;;9.52;2.35;;;4.70;99.90;;;;;;5050338;28;20221;-63
2022/02/23 04:33:59;;;;;;;20.58;3.40;;;4.70;99.90;;;;;;5050351;28;20289;-63
2022/02/23 04:36:26;;;;;;;9.73;2.45;;;4.70;99.90;;;;;;5049993;28;20597;-62
2022/02/23 04:38:53;;;;;;;11.43;4.82;;;4.70;99.90;;;;;;5049946;28;20684;-62
2022/02/23 04:41:21;;;;;;;11.85;2.40;;;4.70;99.90;;;;;;5050266;28;20221;-63
2022/02/23 04:43:49;;;;;;;10.88;2.70;;;4.70;99.90;;;;;;5050097;28;20202;-62
2022/02/23 04:46:16;;;;;;;12.00;3.35;;;4.60;99.90;;;;;;5049825;28;20568;-64
2022/02/23 04:48:45;;;;;;;6.45;3.00;;;4.60;99.90;;;;;;5050240;28;20226;-62
2022/02/23 04:51:12;;;;;;;16.23;3.65;;;4.60;99.90;;;;;;5050077;28;20229;-62
2022/02/23 04:53:40;;;;;;;4.85;2.38;;;4.60;99.90;;;;;;5050942;28;20210;-61
2022/02/23 04:56:08;;;;;;;17.27;3.30;;;4.60;99.90;;;;;;5050450;28;20206;-62
2022/02/23 04:58:35;;;;;;;10.95;2.90;;;4.60;99.90;;;;;;5049802;28;20201;-62
2022/02/23 05:01:04;;;;;;;20.88;3.85;;;4.60;99.90;;;;;;5050685;28;20221;-63
2022/02/23 05:03:32;;;;;;;10.50;2.80;;;4.60;99.90;;;;;;5051210;28;20236;-62
2022/02/23 05:05:59;;;;;;;12.85;3.17;;;4.60;99.90;;;;;;5055513;28;20213;-63
2022/02/23 05:08:27;;;;;;;14.77;3.50;;;4.60;99.90;;;;;;5054099;28;20764;-63
2022/02/23 05:10:56;;;;;;;11.93;3.22;;;4.60;99.90;;;;;;5061854;28;20234;-63
2022/02/23 05:13:25;;;;;;;8.20;2.75;;;4.60;99.90;;;;;;5061227;28;20190;-63
2022/02/23 05:15:53;;;;;;;12.63;3.28;;;4.60;99.90;;;;;;5050948;28;20210;-63
2022/02/23 05:18:21;;;;;;;14.18;3.80;;;4.60;99.90;;;;;;5051016;28;20206;-64
2022/02/23 05:20:48;;;;;;;19.00;3.50;;;4.60;99.90;;;;;;5035933;28;20230;-62
2022/02/23 05:23:16;;;;;;;9.52;2.88;;;4.60;99.90;;;;;;5039003;28;20207;-64
2022/02/23 05:25:43;;;;;;;8.70;3.35;;;4.60;99.90;;;;;;5044236;28;20202;-63
2022/02/23 05:28:10;;;;;;;12.88;5.40;;;4.60;99.90;;;;;;5044177;28;20709;-63
2022/02/23 05:30:37;;;;;;;11.88;4.03;;;4.60;99.90;;;;;;5042484;28;20222;-63
2022/02/23 05:33:05;;;;;;;8.65;2.97;;;4.60;99.90;;;;;;5037024;28;20297;-63
2022/02/23 05:35:33;;;;;;;11.38;3.13;;;4.60;99.90;;;;;;5037082;28;20248;-62
2022/02/23 05:38:00;;;;;;;16.20;3.15;;;4.60;99.90;;;;;;5036775;28;20296;-62
2022/02/23 05:40:28;;;;;;;16.95;3.00;;;4.60;99.90;;;;;;5036831;28;20229;-63
2022/02/23 05:42:55;;;;;;;17.05;3.42;;;4.60;99.90;;;;;;5036662;28;20206;-63
2022/02/23 05:45:22;;;;;;;19.48;4.20;;;4.60;99.90;;;;;;5038623;28;20229;-62
2022/02/23 05:47:50;;;;;;;19.55;4.40;;;4.60;99.90;;;;;;5047187;28;20827;-63
2022/02/23 05:50:17;;;;;;;10.40;3.28;;;4.60;99.90;;;;;;5045274;28;20233;-63
2022/02/23 05:52:45;;;;;;;17.88;3.53;;;4.60;99.90;;;;;;5046337;28;20691;-63
2022/02/23 05:55:13;;;;;;;9.10;3.20;;;4.60;99.90;;;;;;5046143;28;20247;-63
2022/02/23 05:57:40;;;;;;;14.15;3.42;;;4.70;99.90;;;;;;5044031;28;20209;-65
2022/02/23 06:00:08;;;;;;;8.20;2.45;;;4.70;99.90;;;;;;5037331;28;20226;-63
2022/02/23 06:02:35;;;;;;;17.42;3.65;;;4.80;99.90;;;;;;5039024;28;20229;-64
2022/02/23 06:05:03;;;;;;;21.23;4.07;;;4.80;99.90;;;;;;5038193;28;20203;-62
2022/02/23 06:07:30;;;;;;;11.55;3.72;;;4.80;99.90;;;;;;5036564;28;20212;-62
2022/02/23 06:09:59;;;;;;;11.95;3.42;;;4.80;99.90;;;;;;5036784;28;20232;-61
2022/02/23 06:12:26;;;;;;;11.65;2.95;;;4.80;99.90;;;;;;5038055;28;20278;-63
2022/02/23 06:14:53;;;;;;;10.65;4.05;;;4.80;99.90;;;;;;5038771;28;20661;-62
2022/02/23 06:17:20;;;;;;;9.38;4.07;;;4.70;99.90;;;;;;5039040;28;20238;-63
2022/02/23 06:19:48;;;;;;;10.38;2.47;;;4.70;99.90;;;;;;5038519;28;20222;-62
2022/02/23 06:22:15;;;;;;;14.93;4.07;;;4.70;99.90;;;;;;5046538;28;20556;-63
2022/02/23 06:24:42;;;;;;;13.40;3.47;;;4.80;99.90;;;;;;5047234;28;20240;-62
2022/02/23 06:27:13;;;;;;;13.00;3.10;;;4.80;99.90;;;;;;5044297;28;20202;-62
2022/02/23 06:29:41;;;;;;;15.68;3.83;;;4.80;99.90;;;;;;5047831;28;20697;-63
2022/02/23 06:32:09;;;;;;;13.70;3.85;;;4.80;99.90;;;;;;5037777;28;20206;-61
2022/02/23 06:34:38;;;;;;;16.80;4.00;;;4.80;99.90;;;;;;5035769;28;20208;-61
2022/02/23 06:37:06;;;;;;;13.93;2.90;;;4.80;99.90;;;;;;5036075;28;20297;-62
2022/02/23 06:39:35;;;;;;;14.95;3.55;;;4.80;99.90;;;;;;5035476;28;20721;-61
2022/02/23 06:42:03;;;;;;;15.60;3.63;;;4.80;99.90;;;;;;5035536;28;20226;-63
2022/02/23 06:44:33;;;;;;;9.68;3.28;;;4.80;99.90;;;;;;5044207;28;20206;-63
2022/02/23 06:47:02;;;;;;;10.88;3.05;;;4.80;99.90;;;;;;5049468;28;20216;-62
2022/02/23 06:49:30;;;;;;;11.38;3.53;;;4.80;99.90;;;;;;5050506;28;20218;-62
2022/02/23 06:52:00;;;;;;;11.80;3.50;;;4.80;99.90;;;;;;5049041;28;20222;-62
2022/02/23 06:54:28;;;;;;;12.02;3.30;;;4.80;99.90;;;;;;5048599;28;20635;-62
2022/02/23 06:56:55;;;;;;;9.27;3.30;;;4.80;99.90;;;;;;5047091;28;20260;-63
2022/02/23 06:59:23;;;;;;;13.05;3.75;;;4.80;99.90;;;;;;5045665;28;20680;-63
2022/02/23 07:01:51;;;;;;;14.32;3.20;;;4.80;99.90;;;;;;5043067;28;20226;-61
2022/02/23 07:04:18;;;;;;;13.63;3.97;;;4.90;99.90;;;;;;5040283;28;20203;-63
2022/02/23 07:06:46;;;;;;;9.68;3.95;;;4.90;99.90;;;;;;5039664;28;20209;-63
2022/02/23 07:09:13;;;;;;;11.48;3.55;;;5.00;99.90;;;;;;5036927;28;20214;-64
2022/02/23 07:11:40;;;;;;;10.25;3.00;;;5.00;99.90;;;;;;5039346;28;20566;-63
2022/02/23 07:14:09;;;;;;;13.50;2.95;;;5.00;99.90;;;;;;5049340;28;20202;-64
2022/02/23 07:16:37;;;;;;;15.45;3.40;;;5.00;99.90;;;;;;5048641;28;20226;-63
2022/02/23 07:19:06;;;;;;;19.60;4.20;;;5.10;99.90;;;;;;5039600;28;20202;-64
2022/02/23 07:21:34;;;;;;;13.23;3.65;;;5.10;99.90;;;;;;5034554;28;20237;-64
2022/02/23 07:24:02;;;;;;;13.20;3.63;;;5.10;99.90;;;;;;5035422;28;20214;-63
2022/02/23 07:26:29;;;;;;;15.50;4.28;;;5.20;99.90;;;;;;5034421;28;20210;-63
2022/02/23 07:28:56;;;;;;;15.82;4.10;;;5.30;99.90;;;;;;5034217;28;20225;-63
2022/02/23 07:31:24;;;;;;;16.73;4.30;;;5.40;99.90;;;;;;5034976;28;20348;-63
2022/02/23 07:33:51;;;;;;;11.10;2.97;;;5.40;99.90;;;;;;5034868;28;20206;-63
2022/02/23 07:36:20;;;;;;;18.08;4.32;;;5.50;99.90;;;;;;5035870;28;20209;-63
2022/02/23 07:38:48;;;;;;;10.55;3.00;;;5.50;99.90;;;;;;5037163;28;20198;-64
2022/02/23 07:41:22;;;;;;;15.65;3.30;;;5.50;99.90;;;;;;5036218;28;20226;-64
2022/02/23 07:43:49;;;;;;;15.75;3.80;;;5.60;99.90;;;;;;5037168;28;20191;-63
2022/02/23 07:46:16;;;;;;;12.82;2.88;;;5.60;99.90;;;;;;5036493;28;20615;-61
2022/02/23 07:48:45;;;;;;;12.35;4.43;;;5.70;99.90;;;;;;5036129;28;20230;-64
2022/02/23 07:51:12;;;;;;;12.93;3.42;;;5.90;99.90;;;;;;5036195;28;20651;-64
2022/02/23 07:53:40;;;;;;;13.85;3.17;;;6.20;99.90;;;;;;5035588;28;20213;-64
2022/02/23 07:56:08;;;;;;;11.35;4.07;;;6.30;99.90;;;;;;5035320;28;20305;-64
2022/02/23 07:58:35;;;;;;;8.82;3.38;;;6.30;99.90;;;;;;5035834;28;20209;-63
2022/02/23 08:01:02;;;;;;;13.70;3.63;;;6.30;99.90;;;;;;5035592;28;20226;-64
2022/02/23 08:03:29;;;;;;;11.02;3.58;;;6.30;99.90;;;;;;5036994;28;20679;-63
2022/02/23 08:05:56;;;;;;;15.52;3.55;;;6.40;99.90;;;;;;5037662;28;20209;-63
2022/02/23 08:08:23;;;;;;;11.00;3.63;;;6.50;99.90;;;;;;5047027;28;20206;-64
2022/02/23 08:10:52;;;;;;;14.20;4.28;;;6.50;99.90;;;;;;5050194;28;20726;-64
2022/02/23 08:13:19;;;;;;;14.70;3.42;;;6.60;99.90;;;;;;5047327;28;20204;-64
2022/02/23 08:21:17;;;;;;;18.88;3.72;;;6.60;99.90;;;;;;5037124;28;20230;-63
2022/02/23 08:23:45;;;;;;;18.08;4.10;;;6.60;99.90;;;;;;5036087;28;20210;-63
2022/02/23 08:26:14;;;;;;;12.02;3.75;;;6.60;99.90;;;;;;5035345;28;20812;-62
2022/02/23 08:28:41;;;;;;;17.35;3.38;;;6.70;99.90;;;;;;5035315;28;20732;-63
2022/02/23 08:31:09;;;;;;;12.52;3.90;;;6.70;99.90;;;;;;5034909;28;20234;-63
2022/02/23 08:33:36;;;;;;;12.18;3.47;;;6.70;99.90;;;;;;5035804;28;20222;-64
2022/02/23 08:36:03;;;;;;;18.25;3.90;;;6.70;99.90;;;;;;5039753;28;20198;-64
2022/02/23 08:38:30;;;;;;;6.07;2.42;;;6.80;99.90;;;;;;5039861;28;20217;-64
2022/02/23 08:40:57;;;;;;;11.35;3.20;;;6.80;99.90;;;;;;5034104;28;20229;-63
2022/02/23 08:43:27;;;;;;;8.80;3.35;;;6.80;99.90;;;;;;5035173;28;20202;-63
2022/02/23 08:45:54;;;;;;;11.75;3.00;;;6.90;99.90;;;;;;5034846;28;20781;-63
2022/02/23 08:48:21;;;;;;;12.20;2.85;;;6.90;99.90;;;;;;5034454;28;20209;-62
2022/02/23 08:50:48;;;;;;;11.93;4.05;;;6.90;99.90;;;;;;5033446;28;20230;-63
2022/02/23 08:53:15;;;;;;;12.45;3.25;;;6.90;99.90;;;;;;5033248;28;20667;-64
2022/02/23 08:55:42;;;;;;;16.88;3.50;;;7.00;99.90;;;;;;5036037;28;20206;-63
2022/02/23 08:58:13;;;;;;;15.25;3.25;;;6.90;99.90;;;;;;5037229;28;20214;-63
2022/02/23 09:00:42;;;;;;;12.18;4.05;;;7.00;99.90;;;;;;5036271;28;20229;-62
2022/02/23 09:03:09;;;;;;;7.80;2.83;;;7.00;99.90;;;;;;5036647;28;20206;-62
2022/02/23 09:05:36;;;;;;;13.43;4.20;;;7.00;99.90;;;;;;5036669;28;20205;-62
2022/02/23 09:08:03;;;;;;;17.73;5.05;;;7.00;99.90;;;;;;5036543;28;20214;-62
2022/02/23 09:10:30;;;;;;;15.82;3.80;;;7.10;99.90;;;;;;5036703;28;20725;-63
2022/02/23 09:12:57;;;;;;;15.93;2.95;;;7.10;99.90;;;;;;5037075;28;20199;-63
2022/02/23 09:15:25;;;;;;;17.35;3.90;;;7.10;99.90;;;;;;5036836;28;20230;-63
2022/02/23 09:17:53;;;;;;;21.00;5.03;;;7.10;99.90;;;;;;5037296;28;20211;-62
2022/02/23 09:20:21;;;;;;;9.82;3.80;;;7.20;99.90;;;;;;5036814;28;20241;-64
2022/02/23 09:22:48;;;;;;;19.52;4.78;;;7.20;99.90;;;;;;5037077;28;20205;-63
2022/02/23 09:25:15;;;;;;;11.98;3.35;;;7.40;99.90;;;;;;5037225;28;20213;-63
2022/02/23 09:27:42;;;;;;;12.43;3.65;;;7.40;99.90;;;;;;5037826;28;20217;-64
2022/02/23 09:30:11;;;;;;;18.17;4.50;;;7.40;99.90;;;;;;5036712;28;20233;-63
2022/02/23 09:32:38;;;;;;;17.08;3.55;;;7.50;99.90;;;;;;5036598;28;20692;-63
2022/02/23 09:35:08;;;;;;;12.35;4.53;;;7.50;99.90;;;;;;5036315;28;20689;-63
2022/02/23 09:37:35;;;;;;;16.75;3.97;;;7.70;99.90;;;;;;5037649;28;20548;-63
2022/02/23 09:40:02;;;;;;;18.15;4.10;;;7.70;99.90;;;;;;5036593;28;20219;-63
2022/02/23 09:42:29;;;;;;;5.47;2.63;;;7.80;99.90;;;;;;5037027;28;20206;-61
2022/02/23 09:44:59;;;;;;;10.02;3.63;;;7.80;99.90;;;;;;5036405;28;20630;-64
2022/02/23 09:47:29;;;;;;;10.07;2.80;;;8.00;99.90;;;;;;5036589;28;20191;-63
2022/02/23 09:49:57;;;;;;;14.85;3.97;;;8.10;99.90;;;;;;5038126;28;20223;-62
2022/02/23 09:52:26;;;;;;;8.98;2.78;;;8.20;99.30;;;;;;5037205;28;20202;-63
2022/02/23 09:54:56;;;;;;;12.07;2.80;;;8.20;98.80;;;;;;5035840;28;20210;-64
2022/02/23 09:57:24;;;;;;;10.98;3.40;;;8.20;98.50;;;;;;5035894;28;20623;-64
2022/02/23 09:59:51;;;;;;;9.48;2.83;;;8.20;98.10;;;;;;5035579;28;20198;-62
2022/02/23 10:02:19;;;;;;;9.57;3.63;;;8.30;97.90;;;;;;5043748;28;20207;-63
2022/02/23 10:04:47;;;;;;;12.68;3.15;;;8.20;97.10;;;;;;5047021;28;20256;-64
2022/02/23 10:07:14;;;;;;;15.60;3.00;;;8.20;97.20;;;;;;5044604;28;20206;-64
2022/02/23 10:09:44;;;;;;;11.80;3.25;;;8.30;97.00;;;;;;5039403;28;20222;-63
2022/02/23 10:12:17;;;;;;;8.40;3.17;;;8.30;96.80;;;;;;5035346;28;20579;-62
2022/02/23 10:14:44;;;;;;;10.93;2.83;;;8.40;96.60;;;;;;5035752;28;20560;-64
2022/02/23 10:17:11;;;;;;;8.23;2.53;;;8.40;96.50;;;;;;5035968;28;20207;-64
2022/02/23 10:19:49;;;;;;;5.05;2.53;;;8.50;96.30;;;;;;5036094;28;20281;-65
2022/02/23 10:22:22;;;;;;;13.82;3.38;;;8.50;95.60;;;;;;5050345;22;20234;-58
2022/02/23 10:24:57;;;;;;;13.60;3.38;;;8.50;95.90;;;;;;5034272;28;20197;-58
2022/02/23 10:27:25;;;;;;;10.57;3.00;;;8.60;96.00;;;;;;5034419;28;20198;-58
2022/02/23 10:29:55;;;;;;;8.73;3.13;;;8.70;95.40;;;;;;5034665;28;20284;-58
2022/02/23 10:32:23;;;;;;;11.50;2.72;;;8.80;95.50;;;;;;5034147;28;20280;-58
2022/02/23 10:34:52;;;;;;;13.68;3.60;;;8.90;94.90;;;;;;5034400;28;20713;-58
2022/02/23 10:37:21;;;;;;;5.53;2.50;;;8.90;94.70;;;;;;5034736;28;20210;-58
2022/02/23 10:39:51;;;;;;;8.02;2.50;;;9.00;94.40;;;;;;5033880;28;20298;-58
2022/02/23 10:42:20;;;;;;;6.35;2.45;;;9.00;94.00;;;;;;5034194;28;20218;-58
2022/02/23 10:44:50;;;;;;;6.30;2.47;;;9.00;93.20;;;;;;5034194;28;20674;-58
2022/02/23 10:47:26;;;;;;;6.72;2.20;;;9.10;92.90;;;;;;5034759;28;20286;-58
2022/02/23 10:50:01;;;;;;;7.40;2.85;;;9.10;92.40;;;;;;5033894;28;20210;-57
2022/02/23 10:52:30;;;;;;;8.48;2.20;;;9.10;91.30;;;;;;5033553;28;20288;-57
2022/02/23 10:55:15;;;;;;;7.88;2.30;;;9.10;91.80;;;;;;5033348;28;20670;-57
2022/02/23 10:57:44;;;;;;;9.10;2.78;;;9.10;91.80;;;;;;5033892;28;20191;-57
2022/02/23 11:00:16;;;;;;;7.93;2.75;;;9.20;91.10;;;;;;5033465;28;20278;-57
2022/02/23 11:02:44;;;;;;;8.10;2.65;;;9.20;91.10;;;;;;5033606;28;20305;-57
2022/02/23 11:05:12;;;;;;;7.55;2.72;;;9.30;90.90;;;;;;5033249;28;20209;-57
2022/02/23 11:07:42;;;;;;;12.75;2.20;;;9.50;90.30;;;;;;5033494;28;20209;-57
2022/02/23 11:10:13;;;;;;;11.63;2.55;;;9.50;89.40;;;;;;5033739;28;20214;-57
2022/02/23 11:12:44;;;;;;;9.20;2.72;;;9.60;88.90;;;;;;5033980;28;20240;-57
2022/02/23 11:15:14;;;;;;;5.72;1.92;;;9.60;87.30;;;;;;5033469;28;20256;-58
2022/02/23 11:17:41;;;;;;;4.72;1.90;;;9.60;86.80;;;;;;5032917;28;20293;-58
2022/02/23 11:20:10;;;;;;;6.37;2.30;;;9.70;85.10;;;;;;5033467;28;20237;-58
2022/02/23 11:22:38;;;;;;;7.88;2.72;;;9.60;83.40;;;;;;5032887;28;20481;-58
2022/02/23 11:25:06;;;;;;;6.07;2.55;;;9.60;83.40;;;;;;5033106;28;20213;-58
2022/02/23 11:27:36;;;;;;;11.13;2.90;;;9.60;84.40;;;;;;5033023;28;20288;-57
2022/02/23 11:30:08;;;;;;;7.00;2.20;;;9.80;84.00;;;;;;5033263;28;20230;-57
2022/02/23 11:32:41;;;;;;;5.00;1.97;;;9.90;83.20;;;;;;5033714;28;20548;-57
2022/02/23 11:35:11;;;;;;;5.55;1.95;;;10.00;80.80;;;;;;5033283;28;20456;-57
2022/02/23 11:37:40;;;;;;;4.70;1.80;;;10.10;79.40;;;;;;5033343;28;20218;-57
2022/02/23 11:40:09;;;;;;;5.57;1.63;;;10.10;77.70;;;;;;5033122;28;20445;-56
2022/02/23 11:42:38;;;;;;;5.77;1.80;;;10.20;74.90;;;;;;5033079;28;20468;-58
2022/02/23 11:45:13;;;;;;;5.60;1.87;;;10.10;74.70;;;;;;5033238;28;20524;-57
2022/02/23 11:47:58;;;;;;;3.17;1.60;;;10.20;73.70;;;;;;5033845;28;20472;-57
2022/02/23 11:50:27;;;;;;;3.80;1.70;;;10.20;72.40;;;;;;5034680;28;20515;-59
2022/02/23 11:53:13;;;;;;;6.00;2.17;;;10.20;70.00;;;;;;5034453;28;20453;-58
2022/02/23 11:59:02;;;;;;;6.40;2.23;;;10.10;70.80;;;;;;5033213;28;20446;-57
2022/02/23 12:01:45;;;;;;;9.05;2.65;;;10.10;71.50;;;;;;5033179;28;21060;-57
2022/02/23 12:04:14;;;;;;;7.33;2.40;;;10.20;72.60;;;;;;5034680;28;20210;-58
2022/02/23 12:07:10;;;;;;;3.93;1.70;;;10.30;72.40;;;;;;5036423;28;20453;-58
2022/02/23 12:10:01;;;;;;;5.43;2.17;;;10.40;72.40;;;;;;5032519;28;20441;-58
2022/02/23 12:15:27;;;;;;;4.90;1.57;;;10.60;64.60;;;;;;5033297;28;20473;-57
2022/02/23 12:18:00;;;;;;;6.30;2.13;;;10.50;62.70;;;;;;5034665;28;20528;-58
2022/02/23 12:20:50;;;;;;;7.30;2.80;;;10.40;63.70;;;;;;5035785;28;20464;-58
2022/02/23 12:23:37;;;;;;;4.80;1.70;;;10.40;65.00;;;;;;5032951;28;20437;-57
2022/02/23 12:26:36;;;;;;;6.23;1.80;;;10.50;65.10;;;;;;5032689;28;20990;-58
2022/02/23 12:29:07;;;;;;;4.67;2.57;;;10.60;62.80;;;;;;5033364;28;20513;-57
2022/02/23 12:31:34;;;;;;;3.83;1.53;;;10.60;62.80;;;;;;5036841;28;20488;-57
2022/02/23 12:34:05;;;;;;;3.23;1.70;;;10.70;62.10;;;;;;5036531;28;20453;-57
2022/02/23 12:36:40;;;;;;;6.10;1.83;;;10.70;61.30;;;;;;5036495;28;20859;-59
2022/02/23 12:39:12;;;;;;;4.00;1.53;;;10.70;61.90;;;;;;5036625;28;20424;-58
2022/02/23 12:41:40;;;;;;;8.83;2.40;;;10.80;61.80;;;;;;5036367;28;20464;-57
2022/02/23 12:44:09;;;;;;;7.17;2.27;;;10.90;61.20;;;;;;5036522;28;20520;-57
2022/02/23 12:46:39;;;;;;;6.67;2.27;;;10.90;60.50;;;;;;5036277;28;20456;-57
2022/02/23 12:49:08;;;;;;;3.83;1.50;;;10.90;60.40;;;;;;5036488;28;20470;-57
2022/02/23 12:51:37;;;;;;;3.00;1.43;;;11.00;59.60;;;;;;5036019;28;20485;-57
2022/02/23 12:54:06;;;;;;;6.20;2.20;;;11.00;59.10;;;;;;5035768;28;20479;-57
2022/02/23 12:56:36;;;;;;;3.00;1.43;;;11.00;58.90;;;;;;5035969;28;20468;-55
2022/02/23 12:59:06;;;;;;;3.33;2.00;;;11.00;58.70;;;;;;5035982;28;20457;-58
2022/02/23 13:01:36;;;;;;;4.43;1.83;;;11.00;58.60;;;;;;5036186;28;20548;-58
2022/02/23 13:04:08;;;;;;;3.67;1.80;;;11.00;58.70;;;;;;5036290;28;20806;-58
2022/02/23 13:06:36;;;;;;;6.53;2.00;;;11.00;59.00;;;;;;5036233;28;20773;-59
2022/02/23 13:09:07;;;;;;;5.80;2.00;;;11.00;58.90;;;;;;5035793;28;20445;-58